Latest Weather Observations for Braidwood

IDN60901

Issued at 5:41 pm EST Sunday 15 September 2019 (issued every 10 minutes, with the page automatically refreshed every 10 minutes)

About weather observations | Map of Canberra area stations | Latest observations for Canberra area | Other Formats
Station Details ID: 069132 Name: BRAIDWOOD RACECOURSE AWS Lat: -35.43 Lon: 149.78 Height: 665.2 m
Data from the previous 72 hours. | See also: Recent months at Braidwood
Date/Time
EST
Temp
°C
App
Temp
°C
Dew
Point
°C
Rel
Hum
%
Delta-T
°C
Wind Press
QNH
hPa
Press
MSL
hPa
Rain since
9am
mm
Dir  Spd
km/h
Gust
km/h
Spd
kts
Gust
kts
15/05:30pm 18.8 12.3 -6.0 18 9.9 NW 20 33 11 18 1019.0 1018.9 0.0
15/05:00pm 20.8 14.6 -4.4 18 10.6 NW 19 33 10 18 1018.7 1018.7 0.0
15/04:30pm 21.7 15.4 -3.6 18 11.0 NW 20 33 11 18 1018.5 1018.5 0.0
15/04:00pm 22.7 16.2 -2.1 19 11.1 NW 22 37 12 20 1018.3 1018.2 0.0
15/03:30pm 21.9 16.5 -1.4 21 10.5 NW 17 26 9 14 1018.6 1018.6 0.0
15/03:00pm 21.4 16.9 0.0 24 9.9 WNW 13 20 7 11 1019.2 1019.1 0.0
15/02:30pm 21.6 15.4 -0.4 23 10.1 WNW 22 32 12 17 1019.7 1019.7 0.0
15/02:00pm 21.2 15.2 -1.3 22 10.1 W 20 28 11 15 1020.0 1020.0 0.0
15/01:30pm 21.1 14.1 -0.2 24 9.8 WNW 26 35 14 19 1020.2 1020.2 0.0
15/01:00pm 22.0 16.2 -1.3 21 10.5 W 19 32 10 17 1020.3 1020.3 0.0
15/12:30pm 21.2 15.7 -2.0 21 10.3 WNW 17 24 9 13 1020.7 1020.6 0.0
15/12:00pm 21.6 16.4 -3.0 19 10.7 NW 15 26 8 14 1021.1 1021.1 0.0
15/11:30am 21.1 15.0 -2.7 20 10.4 WNW 20 28 11 15 1021.4 1021.4 0.0
15/11:00am 20.9 16.9 -2.2 21 10.2 NW 9 15 5 8 1021.6 1021.6 0.0
15/10:30am 20.6 16.6 -5.3 17 10.7 NNE 7 15 4 8 1022.0 1022.0 0.0
15/10:00am 19.7 15.8 -4.5 19 10.1 N 7 13 4 7 1022.5 1022.5 0.0
15/09:30am 18.1 14.5 -2.2 25 8.8 N 7 11 4 6 1022.7 1022.7 0.0
15/09:00am 15.9 12.9 0.9 36 6.7 N 6 11 3 6 1023.0 1023.0 0.0
15/08:30am 12.7 10.6 1.7 47 4.9 NNW 2 6 1 3 1023.1 1023.1 0.0
15/08:00am 9.0 6.9 1.7 60 3.1 NNE 2 4 1 2 1023.3 1023.3 0.0
15/07:30am 9.2 7.4 3.2 66 2.7 NNE 2 6 1 3 1022.5 1022.5 0.0
15/07:26am 8.6 6.8 3.6 71 2.2 N 2 6 1 3 1022.7 1022.7 0.0
15/07:00am 3.6 2.0 2.3 91 0.5 CALM 0 0 0 0 1022.6 1022.6 0.0
15/06:30am 1.6 -0.7 0.7 94 0.4 S 2 6 1 3 1022.7 1022.7 0.0
15/06:00am 0.3 -1.8 -0.5 94 0.3 CALM 0 6 0 3 1022.7 1022.7 0.0
15/05:30am -0.3 -2.4 -1.0 95 0.2 CALM 0 0 0 0 1022.6 1022.6 0.0
15/05:00am -0.7 -2.9 -1.3 96 0.2 CALM 0 0 0 0 1022.3 1022.2 0.0
15/04:30am -0.9 -3.1 -1.3 97 0.1 CALM 0 0 0 0 1022.2 1022.1 0.0
15/04:00am -1.6 -4.6 -2.2 96 0.1 SE 4 11 2 6 1021.9 1021.9 0.0
15/03:30am -1.9 -4.2 -2.5 96 0.1 CALM 0 0 0 0 1021.7 1021.7 0.0
15/03:22am -2.6 -5.0 -3.1 96 0.1 CALM 0 0 0 0 1021.7 1021.7 0.0
15/03:00am -0.4 -2.5 -0.8 97 0.1 CALM 0 0 0 0 1021.7 1021.7 0.0
15/02:47am 0.1 -1.9 -0.3 97 0.2 CALM 0 0 0 0 1021.7 1021.7 0.0
15/02:30am 1.0 -0.9 0.6 97 0.2 CALM 0 0 0 0 1022.0 1022.0 0.0
15/02:00am -0.7 -2.9 -1.4 95 0.2 CALM 0 0 0 0 1022.3 1022.2 0.0
15/01:30am -1.1 -3.4 -2.1 93 0.3 CALM 0 0 0 0 1022.8 1022.8 0.0
15/01:00am -0.5 -2.7 -1.5 93 0.3 CALM 0 0 0 0 1022.9 1022.9 0.0
15/12:30am 0.1 -2.0 -0.7 94 0.3 CALM 0 0 0 0 1023.3 1023.3 0.0
15/12:00am 0.2 -1.9 -0.9 92 0.4 CALM 0 0 0 0 1023.3 1023.3 0.0
 
Date/Time
EST
Temp
°C
App
Temp
°C
Dew
Point
°C
Rel
Hum
%
Delta-T
°C
Wind Press
QNH
hPa
Press
MSL
hPa
Rain since
9am
mm
Dir  Spd
km/h
Gust
km/h
Spd
kts
Gust
kts
14/11:30pm 0.7 -1.3 -0.3 93 0.4 CALM 0 0 0 0 1023.4 1023.4 0.0
14/11:00pm 1.0 -1.1 -0.5 90 0.6 CALM 0 0 0 0 1023.6 1023.7 0.0
14/10:30pm 1.5 -0.5 -0.3 88 0.7 CALM 0 0 0 0 1023.9 1023.9 0.0
14/10:00pm 2.7 0.9 1.1 89 0.6 CALM 0 0 0 0 1024.0 1024.0 0.0
14/09:30pm 3.0 1.2 0.9 86 0.8 CALM 0 0 0 0 1024.0 1024.0 0.0
14/09:00pm 3.6 1.8 1.0 83 1.0 CALM 0 0 0 0 1024.0 1024.0 0.0
14/08:30pm 4.9 3.2 1.9 81 1.3 CALM 0 0 0 0 1023.8 1023.8 0.0
14/08:00pm 6.1 4.6 3.1 81 1.3 CALM 0 0 0 0 1023.8 1023.8 0.0
14/07:30pm 7.1 5.5 2.6 73 1.9 CALM 0 0 0 0 1023.8 1023.8 0.0
14/07:00pm 8.6 6.2 4.2 74 2.0 SE 6 9 3 5 1023.6 1023.7 0.0
14/06:30pm 8.8 6.6 3.6 70 2.3 SSE 4 6 2 3 1023.2 1023.2 0.0
14/06:00pm 10.2 7.2 3.9 65 2.9 ESE 9 11 5 6 1022.9 1022.9 0.0
14/05:30pm 12.6 8.9 4.3 57 3.9 ESE 13 17 7 9 1022.4 1022.4 0.0
14/05:00pm 14.2 9.8 4.5 52 4.6 ESE 17 22 9 12 1022.0 1022.0 0.0
14/04:30pm 15.8 11.0 4.5 47 5.5 ESE 19 24 10 13 1021.5 1021.5 0.0
14/04:00pm 16.9 12.4 4.3 43 6.1 ESE 17 22 9 12 1021.2 1021.2 0.0
14/03:30pm 17.9 12.6 3.0 37 7.1 ESE 20 28 11 15 1020.9 1020.8 0.0
14/03:00pm 19.3 14.2 0.8 29 8.5 SSE 17 28 9 15 1020.8 1020.7 0.0
14/02:30pm 20.9 16.1 -10.6 11 11.8 SSE 9 20 5 11 1020.7 1020.6 0.0
14/02:00pm 19.6 14.6 -8.6 14 10.8 SSE 11 17 6 9 1020.9 1020.8 0.0
14/01:30pm 19.6 15.5 -6.9 16 10.5 E 7 15 4 8 1021.3 1021.3 0.0
14/01:00pm 18.8 14.6 -8.3 15 10.3 NNW 7 13 4 7 1021.7 1021.7 0.0
14/12:30pm 18.4 14.4 -7.1 17 10.0 NNW 6 13 3 7 1021.8 1021.8 0.0
14/12:00pm 18.6 14.6 -5.4 19 9.7 NNW 7 13 4 7 1022.3 1022.2 0.0
14/11:30am 17.1 13.3 -6.0 20 9.1 NW 6 13 3 7 1022.5 1022.5 0.0
14/11:00am 16.3 11.3 -8.0 18 9.1 WSW 11 22 6 12 1023.0 1023.0 0.0
14/10:30am 15.3 11.5 -5.1 24 8.0 SSW 6 13 3 7 1023.2 1023.2 0.0
14/10:00am 14.4 11.1 -4.3 27 7.4 ENE 4 11 2 6 1023.8 1023.8 0.0
14/09:30am 13.7 11.0 0.0 39 5.9 N 4 7 2 4 1024.0 1024.0 0.0
14/09:00am 12.3 10.0 0.4 44 5.1 ENE 2 6 1 3 1024.1 1024.1 0.0
14/08:30am 9.7 7.4 -2.6 42 4.8 CALM 0 0 0 0 1024.1 1024.1 0.0
14/08:00am 7.4 5.2 -1.8 52 3.6 CALM 0 0 0 0 1023.9 1023.9 0.0
14/07:30am 4.3 2.1 -1.9 64 2.3 CALM 0 4 0 2 1023.4 1023.4 0.0
14/07:00am 1.5 -1.7 -3.2 71 1.7 SSE 4 7 2 4 1023.0 1023.0 0.0
14/06:30am -1.8 -4.5 -6.0 73 1.3 CALM 0 2 0 1 1022.5 1022.5 0.0
14/06:00am -0.8 -3.4 -4.7 75 1.3 CALM 0 0 0 0 1022.3 1022.2 0.0
14/05:30am -1.1 -3.8 -5.7 71 1.4 CALM 0 6 0 3 1022.0 1022.0 0.0
14/05:00am 0.7 -1.9 -4.9 66 1.9 CALM 0 0 0 0 1021.4 1021.4 0.0
14/04:30am 1.5 -1.4 -3.9 67 2.0 NNE 2 4 1 2 1021.1 1021.1 0.0
14/04:00am 1.8 -0.8 -4.9 61 2.4 CALM 0 0 0 0 1020.8 1020.7 0.0
14/03:30am 2.6 -0.4 -5.0 57 2.6 N 2 4 1 2 1020.6 1020.5 0.0
14/03:00am 3.4 -0.1 -5.8 51 3.1 NW 4 7 2 4 1020.7 1020.6 0.0
14/02:30am 5.1 1.1 -5.8 45 3.7 NW 7 13 4 7 1020.6 1020.5 0.0
14/02:00am 7.3 2.9 -5.7 39 4.6 NW 9 13 5 7 1020.7 1020.6 0.0
14/01:30am 8.2 3.9 -4.9 39 4.8 NW 9 11 5 6 1020.9 1020.8 0.0
14/01:00am 6.7 3.5 -3.5 48 3.8 NNW 4 6 2 3 1020.8 1020.7 0.0
14/12:30am 7.7 4.5 -3.8 44 4.3 NNW 4 6 2 3 1020.8 1020.7 0.0
14/12:00am 8.4 3.5 -3.7 42 4.5 WNW 13 15 7 8 1021.1 1021.1 0.0
 
Date/Time
EST
Temp
°C
App
Temp
°C
Dew
Point
°C
Rel
Hum
%
Delta-T
°C
Wind Press
QNH
hPa
Press
MSL
hPa
Rain since
9am
mm
Dir  Spd
km/h
Gust
km/h
Spd
kts
Gust
kts
13/11:30pm 9.3 3.3 -3.3 41 4.8 WNW 19 22 10 12 1021.0 1020.9 0.0
13/11:00pm 10.4 5.2 -2.9 39 5.2 WNW 15 19 8 10 1021.1 1021.1 0.0
13/10:30pm 11.2 6.1 -1.9 40 5.3 WNW 15 22 8 12 1021.2 1021.2 0.0
13/10:00pm 11.0 5.1 -2.1 40 5.3 WNW 19 22 10 12 1021.1 1021.1 0.0
13/09:30pm 11.9 6.6 -0.9 41 5.4 WNW 17 24 9 13 1021.3 1021.3 0.0
13/09:00pm 11.6 7.9 0.1 45 4.9 NW 9 13 5 7 1021.2 1021.2 0.0
13/08:30pm 9.6 8.4 4.8 72 2.2 CALM 0 2 0 1 1021.2 1021.2 0.0
13/08:00pm 10.3 9.2 5.3 71 2.4 CALM 0 0 0 0 1021.1 1021.1 0.0
13/07:30pm 10.6 9.4 4.5 66 2.8 CALM 0 4 0 2 1021.0 1020.9 0.0
13/07:00pm 11.5 9.2 5.6 67 2.8 ESE 7 11 4 6 1021.2 1021.2 0.0
13/06:30pm 13.3 8.9 2.8 49 4.8 SW 15 24 8 13 1021.5 1021.5 0.0
13/06:00pm 16.7 10.2 -5.7 21 8.8 WNW 20 28 11 15 1020.7 1020.6 0.0
13/05:30pm 17.8 11.0 -9.1 15 10.0 NW 20 30 11 16 1020.0 1020.0 0.0
13/05:00pm 18.9 11.3 -10.1 13 10.7 NW 24 39 13 21 1020.0 1020.0 0.0
13/04:30pm 19.2 11.5 -6.4 17 10.2 WNW 26 39 14 21 1019.7 1019.7 0.0
13/04:00pm 19.4 12.1 -6.2 17 10.3 NW 24 37 13 20 1019.4 1019.3 0.0
13/03:30pm 20.1 13.0 -8.2 14 11.0 NW 22 39 12 21 1019.3 1019.2 0.0
13/03:00pm 20.3 14.2 -8.0 14 11.1 NW 17 28 9 15 1019.4 1019.3 0.0
13/02:30pm 21.1 14.0 -8.4 13 11.6 NW 22 33 12 18 1019.9 1019.9 0.0
13/02:00pm 20.8 14.6 -8.6 13 11.4 NW 17 32 9 17 1019.9 1019.9 0.0
13/01:30pm 21.4 15.7 -7.2 14 11.5 NW 15 24 8 13 1020.2 1020.2 0.0
13/01:00pm 21.1 16.5 -7.4 14 11.4 N 9 17 5 9 1020.9 1020.8 0.0
13/12:30pm 19.5 15.4 -7.0 16 10.5 N 7 20 4 11 1021.2 1021.2 0.0
13/12:00pm 18.7 14.4 -8.4 15 10.3 N 7 13 4 7 1021.9 1021.9 0.0
13/11:30am 17.6 13.7 -6.3 19 9.4 N 6 13 3 7 1022.6 1022.6 0.0
13/11:00am 16.7 12.7 -7.7 18 9.2 N 6 9 3 5 1023.0 1023.0 0.0
13/10:30am 15.1 11.5 -7.0 21 8.4 E 4 7 2 4 1023.3 1023.3 0.0
13/10:00am 14.6 11.2 -5.7 24 7.8 N 4 7 2 4 1023.9 1023.9 0.0
13/09:30am 13.2 10.5 -2.7 33 6.5 NW 2 7 1 4 1024.3 1024.3 0.0
13/09:00am 12.4 9.7 -2.2 36 5.9 NE 2 6 1 3 1024.2 1024.2 0.0
13/08:30am 9.6 7.7 0.8 54 3.7 CALM 0 4 0 2 1024.5 1024.5 0.0
13/08:00am 5.6 3.5 -0.7 64 2.5 CALM 0 0 0 0 1024.4 1024.4 0.0
13/07:30am 2.3 0.1 -1.8 74 1.5 CALM 0 0 0 0 1024.4 1024.4 0.0
13/07:00am 0.3 -2.0 -2.6 81 1.0 CALM 0 0 0 0 1024.3 1024.3 0.0
13/06:30am -3.1 -5.7 -5.1 86 0.5 CALM 0 0 0 0 1023.6 1023.7 0.0
13/06:00am -3.0 -6.4 -5.6 82 0.7 S 4 6 2 3 1023.1 1023.1 0.0
13/05:30am -2.0 -4.5 -4.0 86 0.6 CALM 0 2 0 1 1022.7 1022.7 0.0
13/05:00am -2.5 -5.1 -5.3 81 0.8 CALM 0 0 0 0 1022.2 1022.1 0.0
13/04:30am -0.6 -3.0 -3.3 82 0.9 CALM 0 4 0 2 1021.6 1021.6 0.0
13/04:00am -0.3 -3.1 -3.7 78 1.1 W 2 4 1 2 1021.3 1021.3 0.0
13/03:30am 1.7 -1.3 -2.2 75 1.4 NW 4 9 2 5 1021.0 1020.9 0.0
13/03:00am 2.4 0.1 -2.1 72 1.6 CALM 0 0 0 0 1020.6 1020.5 0.0
13/02:30am 2.5 -0.2 -2.8 68 1.9 SE 2 4 1 2 1021.1 1021.1 0.0
13/02:00am 4.3 2.1 -1.9 64 2.3 CALM 0 0 0 0 1021.4 1021.4 0.0
13/01:30am 4.7 1.7 -2.2 61 2.6 SW 4 6 2 3 1021.2 1021.2 0.0
13/01:00am 4.2 1.9 -2.6 61 2.5 CALM 0 0 0 0 1021.1 1021.1 0.0
13/12:30am 3.6 -0.3 -4.6 55 2.9 SE 7 9 4 5 1020.8 1020.7 0.0
13/12:29am 3.7 -0.2 -4.7 54 2.9 SE 7 9 4 5 1020.8 1020.7 0.0
13/12:00am 8.7 6.6 -0.9 51 3.9 CALM 0 0 0 0 1020.3 1020.3 0.0
 
Date/Time
EST
Temp
°C
App
Temp
°C
Dew
Point
°C
Rel
Hum
%
Delta-T
°C
Wind Press
QNH
hPa
Press
MSL
hPa
Rain since
9am
mm
Dir  Spd
km/h
Gust
km/h
Spd
kts
Gust
kts
12/11:30pm 4.9 2.0 -3.9 53 3.2 WSW 2 6 1 3 1020.6 1020.5 0.0
12/11:00pm 5.8 2.8 -1.8 58 2.9 WSW 4 6 2 3 1020.6 1020.5 0.0
12/10:30pm 7.2 5.0 -1.7 53 3.5 CALM 0 0 0 0 1020.4 1020.4 0.0
12/10:00pm 8.2 4.6 -2.1 48 4.0 ESE 7 15 4 8 1020.4 1020.4 0.0
12/09:30pm 11.0 7.1 -1.7 41 5.2 W 9 13 5 7 1020.4 1020.4 0.0
12/09:00pm 10.9 7.5 -2.1 40 5.2 WSW 6 11 3 6 1020.7 1020.6 0.0
12/08:30pm 11.9 8.0 -1.3 40 5.5 W 9 19 5 10 1020.6 1020.5 0.0
12/08:00pm 8.3 5.5 -3.2 44 4.4 N 2 6 1 3 1020.0 1020.0 0.0
12/07:30pm 11.8 9.1 -2.4 37 5.7 WSW 2 9 1 5 1020.6 1020.5 0.0
12/07:00pm 12.8 8.0 -2.6 34 6.2 W 13 22 7 12 1020.0 1020.0 0.0
12/06:30pm 13.9 6.3 -2.1 33 6.6 WNW 28 43 15 23 1019.7 1019.7 0.0
12/06:00pm 14.1 7.5 -0.7 36 6.3 W 24 32 13 17 1019.4 1019.3 0.0

Latest Capital City Observations: Canberra | Sydney | Melbourne | Brisbane | Adelaide | Perth | Hobart | Darwin

Other formats

Comma delimited format used in spreadsheet applications
http://www.bom.gov.au/fwo/IDN60903/IDN60903.94927.axf

JavaScript Object Notation format (JSON) in row-major order
http://www.bom.gov.au/fwo/IDN60903/IDN60903.94927.json

Data quality

Most of these data are generated automatically and are frequently updated. Quality checks on data are not normally performed. It is possible for incorrect values to appear. Refer to information at About Latest Weather Observations and please check the disclaimer before using these data.